Time;durP1;ratioP1;P1;durP2;ratioP2;P2;SDS_P1;SDS_P2;PMS_P1;PMS_P2;Temp;Humidity;BMP_temperature;BMP_pressure;BME280_temperature;BME280_humidity;BME280_pressure;Samples;Min_cycle;Max_cycle;Signal;HPM_P1;HPM_P2
2022/03/12 00:00:30;;;;;;;7.68;4.20;;;6.00;86.40;;;;;;6264959;22;20062;-58
2022/03/12 00:02:57;;;;;;;8.95;5.00;;;5.50;86.50;;;;;;6264380;22;20368;-60
2022/03/12 00:05:25;;;;;;;8.95;5.47;;;5.50;86.70;;;;;;6265137;22;20059;-59
2022/03/12 00:07:51;;;;;;;10.73;5.00;;;5.40;87.10;;;;;;6264178;22;20568;-58
2022/03/12 00:10:21;;;;;;;7.75;5.50;;;5.40;86.90;;;;;;6264677;22;20430;-58
2022/03/12 00:12:48;;;;;;;9.07;6.13;;;5.40;87.20;;;;;;6264631;22;20018;-67
2022/03/12 00:15:14;;;;;;;7.85;5.18;;;5.50;87.50;;;;;;6237198;22;20027;-61
2022/03/12 00:17:45;;;;;;;9.63;5.53;;;5.40;87.40;;;;;;6264491;22;20334;-71
2022/03/12 00:20:14;;;;;;;6.47;4.28;;;5.40;87.50;;;;;;6264074;22;20023;-62
2022/03/12 00:22:44;;;;;;;7.63;4.88;;;5.40;87.70;;;;;;6265714;22;20020;-63
2022/03/12 00:25:10;;;;;;;7.28;4.63;;;5.40;87.70;;;;;;6266412;22;20019;-61
2022/03/12 00:27:37;;;;;;;10.23;4.70;;;5.30;87.30;;;;;;6240417;22;20015;-70
2022/03/12 00:30:03;;;;;;;12.55;5.00;;;5.40;87.90;;;;;;6267857;22;20364;-70
2022/03/12 00:32:30;;;;;;;8.02;5.03;;;5.30;88.10;;;;;;6240866;22;20027;-63
2022/03/12 00:34:56;;;;;;;8.32;4.50;;;5.30;88.00;;;;;;6266924;22;20595;-59
2022/03/12 00:37:21;;;;;;;8.13;5.25;;;5.30;88.00;;;;;;6267710;22;20019;-58
2022/03/12 00:39:48;;;;;;;7.88;5.13;;;5.30;88.30;;;;;;6268148;22;20016;-58
2022/03/12 00:42:14;;;;;;;14.23;5.15;;;5.30;88.60;;;;;;6239794;22;20031;-58
2022/03/12 00:44:40;;;;;;;11.10;5.15;;;5.30;88.10;;;;;;6267570;22;20496;-58
2022/03/12 00:47:06;;;;;;;11.02;5.63;;;5.20;88.50;;;;;;6268012;22;20019;-58
2022/03/12 00:49:31;;;;;;;9.65;5.15;;;5.20;88.70;;;;;;6267204;22;20514;-59
2022/03/12 00:51:57;;;;;;;9.48;5.60;;;5.20;88.10;;;;;;6266968;22;20050;-58
2022/03/12 00:54:23;;;;;;;7.60;4.70;;;5.20;88.50;;;;;;6267829;22;20342;-59
2022/03/12 00:56:48;;;;;;;9.25;4.72;;;5.20;88.60;;;;;;6267605;22;20056;-59
2022/03/12 00:59:14;;;;;;;8.90;5.53;;;5.20;88.60;;;;;;6266757;22;20031;-58
2022/03/12 01:01:40;;;;;;;11.45;6.05;;;5.20;89.00;;;;;;6267637;22;20631;-57
2022/03/12 01:04:06;;;;;;;13.68;5.35;;;5.30;88.60;;;;;;6240183;22;20012;-59
2022/03/12 01:06:34;;;;;;;9.15;5.28;;;5.20;88.50;;;;;;6266998;22;20461;-58
2022/03/12 01:09:01;;;;;;;6.18;4.45;;;5.20;89.00;;;;;;6267865;22;20016;-58
2022/03/12 01:11:26;;;;;;;12.10;5.28;;;5.20;89.10;;;;;;6267065;22;20019;-58
2022/03/12 01:13:52;;;;;;;9.75;4.68;;;5.20;88.80;;;;;;6266850;22;20821;-58
2022/03/12 01:16:18;;;;;;;8.13;4.68;;;5.20;89.10;;;;;;6267941;22;20069;-58
2022/03/12 01:18:45;;;;;;;11.30;6.07;;;5.20;89.40;;;;;;6267216;22;20028;-58
2022/03/12 01:21:16;;;;;;;6.93;4.55;;;5.60;89.60;;;;;;6268062;22;20180;-58
2022/03/12 01:23:43;;;;;;;11.32;5.68;;;4.90;89.50;;;;;;6214834;22;20459;-58
2022/03/12 01:26:10;;;;;;;11.70;5.32;;;5.20;90.10;;;;;;6239626;22;20034;-58
2022/03/12 01:28:37;;;;;;;7.53;4.97;;;5.40;89.80;;;;;;6266903;22;20012;-59
2022/03/12 01:31:03;;;;;;;7.20;4.05;;;5.20;89.70;;;;;;6266407;22;20023;-60
2022/03/12 01:33:29;;;;;;;8.75;4.70;;;5.20;89.90;;;;;;6266782;22;20020;-59
2022/03/12 01:35:57;;;;;;;10.05;4.60;;;5.20;90.00;;;;;;6267104;22;20026;-58
2022/03/12 01:38:33;;;;;;;8.43;5.25;;;5.20;89.90;;;;;;6266597;22;20020;-62
2022/03/12 01:41:02;;;;;;;8.52;5.32;;;5.20;90.10;;;;;;6266439;22;20016;-58
2022/03/12 01:43:31;;;;;;;10.88;5.63;;;5.20;90.00;;;;;;6267008;22;20019;-58
2022/03/12 01:46:00;;;;;;;9.55;5.18;;;5.20;90.00;;;;;;6267010;22;20394;-58
2022/03/12 01:48:27;;;;;;;12.23;5.30;;;5.20;89.90;;;;;;6267065;22;20019;-58
2022/03/12 01:50:53;;;;;;;12.02;6.13;;;5.20;90.10;;;;;;6267331;22;20012;-66
2022/03/12 01:53:19;;;;;;;8.35;5.45;;;5.20;90.30;;;;;;6267118;22;20099;-63
2022/03/12 01:55:45;;;;;;;7.47;4.90;;;5.20;90.00;;;;;;6266927;22;20020;-61
2022/03/12 01:58:10;;;;;;;8.57;5.70;;;5.20;90.10;;;;;;6266686;22;20289;-62
2022/03/12 02:00:47;;;;;;;8.82;4.93;;;5.10;90.30;;;;;;6266566;22;20015;-61
2022/03/12 02:03:14;;;;;;;7.68;5.00;;;5.20;90.10;;;;;;6266548;22;20031;-62
2022/03/12 02:05:41;;;;;;;9.10;5.60;;;5.10;90.10;;;;;;6267290;22;20058;-61
2022/03/12 02:08:12;;;;;;;7.30;5.07;;;5.20;90.20;;;;;;6266761;22;20384;-61
2022/03/12 02:10:38;;;;;;;8.73;5.47;;;5.20;90.10;;;;;;6267004;22;20016;-58
2022/03/12 02:13:04;;;;;;;11.32;5.75;;;5.40;90.20;;;;;;6240243;22;20034;-58
2022/03/12 02:15:30;;;;;;;8.00;5.28;;;5.30;90.20;;;;;;6266805;22;20016;-69
2022/03/12 02:17:56;;;;;;;7.00;4.95;;;5.20;90.40;;;;;;6266133;22;20140;-69
2022/03/12 02:20:22;;;;;;;12.70;4.80;;;5.10;90.30;;;;;;6266584;22;20134;-73
2022/03/12 02:22:53;;;;;;;10.30;5.15;;;5.20;90.30;;;;;;6239355;22;20081;-71
2022/03/12 02:25:28;;;;;;;7.75;4.95;;;5.20;90.30;;;;;;6266993;22;20557;-73
2022/03/12 02:27:55;;;;;;;7.63;4.43;;;5.20;90.50;;;;;;6266254;22;20020;-63
2022/03/12 02:30:23;;;;;;;7.20;4.70;;;5.50;90.50;;;;;;6265922;22;20020;-73
2022/03/12 02:32:53;;;;;;;8.55;5.65;;;5.20;90.30;;;;;;6266572;22;20330;-61
2022/03/12 02:35:24;;;;;;;10.73;5.80;;;5.20;90.50;;;;;;6265561;22;20055;-61
2022/03/12 02:37:52;;;;;;;8.70;5.40;;;5.20;90.50;;;;;;6266362;22;20016;-61
2022/03/12 02:40:19;;;;;;;7.50;4.47;;;5.20;90.50;;;;;;6266538;22;20020;-61
2022/03/12 02:42:50;;;;;;;8.93;5.70;;;5.20;90.70;;;;;;6267765;22;20019;-62
2022/03/12 02:45:15;;;;;;;7.40;5.38;;;5.20;90.70;;;;;;6266258;22;20449;-59
2022/03/12 02:47:43;;;;;;;7.28;5.50;;;5.10;90.60;;;;;;6239817;22;20027;-64
2022/03/12 02:50:11;;;;;;;8.52;5.22;;;5.20;90.50;;;;;;6267025;22;20097;-65
2022/03/12 02:52:41;;;;;;;7.53;5.10;;;5.10;90.30;;;;;;6239979;22;20106;-62
2022/03/12 02:55:12;;;;;;;9.25;5.30;;;5.20;90.30;;;;;;6267098;22;20058;-62
2022/03/12 02:57:39;;;;;;;7.93;4.75;;;5.10;90.40;;;;;;6267086;22;20028;-66
2022/03/12 03:00:06;;;;;;;8.55;5.18;;;5.10;90.70;;;;;;6267235;22;20015;-63
2022/03/12 03:02:40;;;;;;;8.60;5.47;;;5.10;90.50;;;;;;6266690;22;20082;-61
2022/03/12 03:05:38;;;;;;;11.10;4.82;;;5.10;90.30;;;;;;6238740;22;20031;-63
2022/03/12 03:08:07;;;;;;;7.15;4.38;;;5.10;90.60;;;;;;6266098;22;20494;-58
2022/03/12 03:10:35;;;;;;;9.63;5.55;;;5.30;90.40;;;;;;6239259;22;20012;-59
2022/03/12 03:13:16;;;;;;;9.80;5.43;;;5.10;90.30;;;;;;6214000;22;20090;-58
2022/03/12 03:16:01;;;;;;;8.65;5.45;;;5.10;90.50;;;;;;6266551;22;20046;-58
2022/03/12 03:18:31;;;;;;;9.90;4.97;;;5.10;90.30;;;;;;6266030;22;20481;-58
2022/03/12 03:20:59;;;;;;;7.88;4.88;;;5.10;90.40;;;;;;6267942;22;20012;-59
2022/03/12 03:23:26;;;;;;;5.10;4.22;;;5.10;90.50;;;;;;6267020;22;20020;-58
2022/03/12 03:25:52;;;;;;;7.72;4.97;;;5.10;90.50;;;;;;6266696;22;20223;-58
2022/03/12 03:28:18;;;;;;;8.48;5.10;;;5.10;90.50;;;;;;6267359;22;20058;-58
2022/03/12 03:30:45;;;;;;;10.43;5.50;;;5.10;90.60;;;;;;6266091;22;20114;-58
2022/03/12 03:33:16;;;;;;;11.07;4.72;;;5.10;90.80;;;;;;6239898;22;20514;-58
2022/03/12 03:35:43;;;;;;;7.43;4.55;;;5.10;90.40;;;;;;6265872;22;20027;-58
2022/03/12 03:38:11;;;;;;;8.45;5.15;;;5.00;90.40;;;;;;6238776;22;20458;-61
2022/03/12 03:40:39;;;;;;;7.40;5.53;;;5.10;90.50;;;;;;6266731;22;20096;-58
2022/03/12 03:43:13;;;;;;;9.70;4.65;;;5.10;90.60;;;;;;6268520;22;20016;-58
2022/03/12 03:45:39;;;;;;;9.27;4.60;;;5.10;90.50;;;;;;6268690;22;20027;-58
2022/03/12 03:48:18;;;;;;;9.50;5.18;;;5.10;90.30;;;;;;6268846;22;20319;-58
2022/03/12 03:50:46;;;;;;;12.60;5.40;;;5.10;90.40;;;;;;6269150;22;20145;-58
2022/03/12 03:53:14;;;;;;;7.22;4.78;;;5.10;90.50;;;;;;6268153;22;20046;-58
2022/03/12 03:55:42;;;;;;;8.82;5.10;;;5.10;90.50;;;;;;6267801;22;20030;-60
2022/03/12 03:58:08;;;;;;;12.88;4.88;;;5.10;90.60;;;;;;6268507;22;20020;-58
2022/03/12 04:00:34;;;;;;;8.52;4.95;;;4.70;90.70;;;;;;6267659;22;20076;-59
2022/03/12 04:03:04;;;;;;;8.30;4.38;;;5.00;90.90;;;;;;6268922;22;20026;-58
2022/03/12 04:05:30;;;;;;;6.10;4.15;;;5.00;90.80;;;;;;6268093;22;20024;-58
2022/03/12 04:07:56;;;;;;;7.15;4.57;;;5.10;90.90;;;;;;6268690;22;20026;-59
2022/03/12 04:10:21;;;;;;;13.80;5.05;;;5.00;91.00;;;;;;6268251;22;20054;-59
2022/03/12 04:12:47;;;;;;;6.55;4.05;;;5.00;91.00;;;;;;6268815;22;20031;-58
2022/03/12 04:15:13;;;;;;;8.88;4.40;;;5.00;90.90;;;;;;6240684;22;20016;-58
2022/03/12 04:17:41;;;;;;;13.63;5.47;;;5.00;91.00;;;;;;6268723;22;20024;-58
2022/03/12 04:20:08;;;;;;;7.03;4.80;;;5.30;91.20;;;;;;6240096;22;20125;-58
2022/03/12 04:22:38;;;;;;;5.75;4.03;;;4.90;91.20;;;;;;6267634;22;20024;-59
2022/03/12 04:25:05;;;;;;;8.65;5.18;;;4.90;91.30;;;;;;6267722;22;20015;-58
2022/03/12 04:27:31;;;;;;;7.68;4.70;;;4.90;91.40;;;;;;6215618;22;20019;-64
2022/03/12 04:29:56;;;;;;;8.80;4.97;;;4.80;91.40;;;;;;6268201;22;20022;-60
2022/03/12 04:32:23;;;;;;;8.43;4.72;;;4.70;91.40;;;;;;6268326;22;20059;-62
2022/03/12 04:34:49;;;;;;;7.30;4.70;;;4.80;91.30;;;;;;6268062;22;20091;-63
2022/03/12 04:37:14;;;;;;;6.30;4.30;;;4.70;91.40;;;;;;6267859;22;20430;-65
2022/03/12 04:39:40;;;;;;;7.70;4.40;;;4.70;91.40;;;;;;6267940;22;20020;-74
2022/03/12 04:42:07;;;;;;;7.35;4.75;;;4.60;91.70;;;;;;6267884;22;20078;-58
2022/03/12 04:44:32;;;;;;;8.43;5.38;;;4.60;91.70;;;;;;6267982;22;20087;-63
2022/03/12 04:46:58;;;;;;;8.25;5.43;;;4.60;91.70;;;;;;6267850;22;20382;-67
2022/03/12 04:49:24;;;;;;;6.05;4.90;;;4.60;91.70;;;;;;6267530;22;20541;-67
2022/03/12 04:51:49;;;;;;;10.35;5.22;;;4.50;91.80;;;;;;6267554;22;20016;-65
2022/03/12 04:54:15;;;;;;;9.18;4.68;;;4.50;91.90;;;;;;6266923;22;20024;-66
2022/03/12 04:56:41;;;;;;;7.57;4.88;;;4.50;91.90;;;;;;6267549;22;20082;-72
2022/03/12 04:59:06;;;;;;;6.75;4.72;;;4.40;91.90;;;;;;6267726;22;20020;-68
2022/03/12 05:01:32;;;;;;;9.15;4.88;;;4.40;92.00;;;;;;6267597;22;20511;-72
2022/03/12 05:03:58;;;;;;;14.75;4.88;;;4.40;92.00;;;;;;6267964;22;20015;-67
2022/03/12 05:06:23;;;;;;;7.93;4.97;;;4.40;92.10;;;;;;6267662;22;20101;-65
2022/03/12 05:08:49;;;;;;;9.50;5.20;;;4.30;92.10;;;;;;6267779;22;20019;-58
2022/03/12 05:11:15;;;;;;;6.05;4.53;;;4.30;92.30;;;;;;6266016;22;20426;-58
2022/03/12 05:13:40;;;;;;;6.00;4.22;;;4.20;92.30;;;;;;6267582;22;20319;-58
2022/03/12 05:16:06;;;;;;;6.35;3.95;;;4.20;92.20;;;;;;6267282;22;20023;-58
2022/03/12 05:18:36;;;;;;;10.70;4.95;;;4.90;92.40;;;;;;6240070;22;20028;-58
2022/03/12 05:21:04;;;;;;;8.95;5.15;;;4.10;92.40;;;;;;6267535;22;20024;-58
2022/03/12 05:23:29;;;;;;;7.18;4.40;;;4.10;92.50;;;;;;6239986;22;20019;-59
2022/03/12 05:25:55;;;;;;;6.40;4.40;;;4.00;92.60;;;;;;6266423;22;20019;-61
2022/03/12 05:28:29;;;;;;;6.47;4.65;;;4.00;92.70;;;;;;6267441;22;20026;-61
2022/03/12 05:30:57;;;;;;;7.97;4.53;;;4.00;92.70;;;;;;6267037;22;20020;-58
2022/03/12 05:33:24;;;;;;;7.05;4.10;;;4.00;92.70;;;;;;6267467;22;20039;-59
2022/03/12 05:35:53;;;;;;;7.15;3.92;;;4.10;92.90;;;;;;6266917;22;20031;-60
2022/03/12 05:38:19;;;;;;;9.70;4.00;;;3.90;92.80;;;;;;6239709;22;20031;-62
2022/03/12 05:40:47;;;;;;;6.63;4.45;;;3.90;92.90;;;;;;6239783;22;20055;-65
2022/03/12 05:43:15;;;;;;;11.60;4.53;;;3.80;92.90;;;;;;6239944;22;20118;-58
2022/03/12 05:45:45;;;;;;;10.82;4.85;;;3.80;92.90;;;;;;6267035;22;20031;-58
2022/03/12 05:48:13;;;;;;;6.53;4.30;;;3.80;93.10;;;;;;6267029;22;20133;-58
2022/03/12 05:50:40;;;;;;;11.52;5.13;;;3.80;93.00;;;;;;6265722;22;20081;-58
2022/03/12 05:53:09;;;;;;;9.60;4.30;;;3.70;93.10;;;;;;6267593;22;20018;-61
2022/03/12 05:55:39;;;;;;;5.28;3.65;;;3.70;93.20;;;;;;6238646;22;20468;-59
2022/03/12 05:58:10;;;;;;;8.05;4.30;;;3.70;93.30;;;;;;6214232;22;20058;-58
2022/03/12 06:00:36;;;;;;;10.18;5.18;;;3.70;93.20;;;;;;6266870;22;20026;-59
2022/03/12 06:03:02;;;;;;;5.38;3.58;;;3.70;93.30;;;;;;6265834;22;20065;-60
2022/03/12 06:05:28;;;;;;;6.80;5.03;;;3.70;93.30;;;;;;6267199;22;20016;-62
2022/03/12 06:07:54;;;;;;;6.82;4.05;;;3.90;93.40;;;;;;6239670;22;20030;-62
2022/03/12 06:10:25;;;;;;;6.22;5.05;;;3.70;93.30;;;;;;6265800;22;20019;-61
2022/03/12 06:12:53;;;;;;;7.47;4.13;;;3.60;93.50;;;;;;6267188;22;20016;-58
2022/03/12 06:15:21;;;;;;;6.75;4.57;;;3.70;93.50;;;;;;6266145;22;20090;-59
2022/03/12 06:17:49;;;;;;;8.98;4.22;;;3.60;93.50;;;;;;6266672;22;20019;-58
2022/03/12 06:20:20;;;;;;;9.23;4.00;;;3.80;93.50;;;;;;6265747;22;20020;-58
2022/03/12 06:22:47;;;;;;;9.98;4.70;;;3.60;93.60;;;;;;6240190;22;20619;-67
2022/03/12 06:25:15;;;;;;;8.98;4.50;;;3.70;93.60;;;;;;6267044;22;20116;-57
2022/03/12 06:27:42;;;;;;;7.22;4.47;;;3.70;93.70;;;;;;6266979;22;20042;-62
2022/03/12 06:30:10;;;;;;;10.05;4.68;;;3.70;93.70;;;;;;6266282;22;20450;-58
2022/03/12 06:32:38;;;;;;;9.07;4.57;;;3.80;93.60;;;;;;6265844;22;20024;-66
2022/03/12 06:35:06;;;;;;;10.38;4.32;;;3.90;93.60;;;;;;6266870;22;20389;-63
2022/03/12 06:37:32;;;;;;;6.47;4.15;;;3.90;93.50;;;;;;6238523;22;20583;-57
2022/03/12 06:39:58;;;;;;;8.25;4.57;;;4.00;93.40;;;;;;6266389;22;20015;-58
2022/03/12 06:42:25;;;;;;;7.85;4.35;;;4.00;93.30;;;;;;6266643;22;20081;-58
2022/03/12 06:44:55;;;;;;;7.40;4.93;;;4.10;93.30;;;;;;6266662;22;20054;-58
2022/03/12 06:47:27;;;;;;;6.80;4.45;;;4.10;93.40;;;;;;6263474;22;20090;-63
2022/03/12 06:49:54;;;;;;;9.50;4.65;;;4.20;93.30;;;;;;6266163;22;20086;-56
2022/03/12 06:52:20;;;;;;;8.20;5.00;;;4.20;93.30;;;;;;6238708;22;20019;-62
2022/03/12 06:54:46;;;;;;;11.18;4.95;;;4.30;93.20;;;;;;6263171;22;20083;-56
2022/03/12 06:57:11;;;;;;;7.68;4.60;;;4.30;93.20;;;;;;6266032;22;20343;-56
2022/03/12 06:59:37;;;;;;;8.25;5.80;;;4.30;93.20;;;;;;6266163;22;20450;-57
2022/03/12 07:02:03;;;;;;;7.93;4.63;;;4.30;93.20;;;;;;6265730;22;20020;-56
2022/03/12 07:04:29;;;;;;;6.40;4.03;;;4.40;93.10;;;;;;6266891;22;20326;-60
2022/03/12 07:06:54;;;;;;;9.68;4.20;;;4.50;93.10;;;;;;6265093;22;20020;-60
2022/03/12 07:09:21;;;;;;;7.72;4.13;;;4.50;93.10;;;;;;6264890;22;20397;-63
2022/03/12 07:11:46;;;;;;;8.85;4.50;;;4.60;92.90;;;;;;6237634;22;20016;-58
2022/03/12 07:14:12;;;;;;;6.03;3.85;;;4.70;93.00;;;;;;6264554;22;20022;-60
2022/03/12 07:16:38;;;;;;;6.63;3.72;;;4.80;92.80;;;;;;6266339;22;20123;-61
2022/03/12 07:19:03;;;;;;;6.70;3.67;;;4.90;92.80;;;;;;6268214;22;20031;-65
2022/03/12 07:21:29;;;;;;;9.25;4.70;;;5.00;92.70;;;;;;6267474;22;20082;-62
2022/03/12 07:23:56;;;;;;;7.78;4.30;;;5.20;92.50;;;;;;6267388;22;20442;-57
2022/03/12 07:26:22;;;;;;;7.53;4.82;;;6.00;92.60;;;;;;6267273;22;20024;-58
2022/03/12 07:28:49;;;;;;;7.15;4.97;;;5.30;92.20;;;;;;6266434;22;20060;-56
2022/03/12 07:31:16;;;;;;;6.45;4.50;;;5.50;92.10;;;;;;6266413;22;20031;-55
2022/03/12 07:33:44;;;;;;;7.82;4.32;;;5.70;91.90;;;;;;6266227;22;20015;-56
2022/03/12 07:36:10;;;;;;;7.45;4.78;;;5.80;91.90;;;;;;6267546;22;20023;-56
2022/03/12 07:38:36;;;;;;;6.30;4.28;;;5.90;91.80;;;;;;6266353;22;20450;-56
2022/03/12 07:41:02;;;;;;;7.47;4.60;;;6.10;91.70;;;;;;6266545;22;20045;-55
2022/03/12 07:43:28;;;;;;;9.63;4.90;;;6.20;91.70;;;;;;6240105;22;20016;-56
2022/03/12 07:45:53;;;;;;;6.85;3.70;;;6.30;91.60;;;;;;6266469;22;20027;-56
2022/03/12 07:48:19;;;;;;;7.10;3.78;;;6.30;91.50;;;;;;6266792;22;20012;-62
2022/03/12 07:50:46;;;;;;;6.25;4.43;;;6.40;91.50;;;;;;6267412;22;20024;-71
2022/03/12 07:53:12;;;;;;;8.40;4.15;;;6.60;91.40;;;;;;6266401;22;20023;-63
2022/03/12 07:55:39;;;;;;;9.07;4.60;;;6.80;91.30;;;;;;6266279;22;20107;-65
2022/03/12 07:58:05;;;;;;;8.00;4.45;;;7.10;91.10;;;;;;6268250;22;20012;-56
2022/03/12 08:00:31;;;;;;;6.13;4.45;;;7.40;91.00;;;;;;6268324;22;20514;-62
2022/03/12 08:02:58;;;;;;;6.47;4.28;;;7.60;90.70;;;;;;6267030;22;20054;-57
2022/03/12 08:05:25;;;;;;;11.18;6.00;;;7.90;90.50;;;;;;6266941;22;20496;-56
2022/03/12 08:07:53;;;;;;;5.80;4.68;;;8.20;90.20;;;;;;6267781;22;20027;-60
2022/03/12 08:10:19;;;;;;;8.57;4.20;;;8.40;89.80;;;;;;6267944;22;20084;-56
2022/03/12 08:12:45;;;;;;;8.65;4.80;;;8.70;89.10;;;;;;6266834;22;20454;-67
2022/03/12 08:15:12;;;;;;;9.52;4.63;;;9.00;88.30;;;;;;6239794;22;20034;-56
2022/03/12 08:17:38;;;;;;;5.32;3.92;;;9.50;87.80;;;;;;6240431;22;20354;-56
2022/03/12 08:20:08;;;;;;;7.78;4.32;;;9.40;87.20;;;;;;6267911;22;20030;-57
2022/03/12 08:22:45;;;;;;;6.20;4.35;;;9.60;86.90;;;;;;6267118;22;20619;-57
2022/03/12 08:25:13;;;;;;;10.35;5.43;;;9.90;85.70;;;;;;6267807;22;20158;-56
2022/03/12 08:27:40;;;;;;;7.15;4.88;;;10.10;85.70;;;;;;6267482;22;20022;-56
2022/03/12 08:30:08;;;;;;;7.38;4.95;;;10.30;85.40;;;;;;6267016;22;20077;-56
2022/03/12 08:32:36;;;;;;;8.02;5.22;;;10.40;85.00;;;;;;6265690;22;20019;-56
2022/03/12 08:35:07;;;;;;;6.75;4.45;;;10.40;84.60;;;;;;6265586;22;20027;-56
2022/03/12 08:37:33;;;;;;;9.82;5.00;;;10.50;83.90;;;;;;6265567;22;20019;-56
2022/03/12 08:40:01;;;;;;;8.68;4.85;;;9.90;83.50;;;;;;6267549;22;20016;-56
2022/03/12 08:42:28;;;;;;;10.18;4.90;;;10.60;84.30;;;;;;6260133;22;20042;-56
2022/03/12 08:44:54;;;;;;;9.93;4.95;;;10.60;84.30;;;;;;6238198;22;20081;-57
2022/03/12 08:47:19;;;;;;;7.18;5.15;;;10.70;84.10;;;;;;6238242;22;20023;-56
2022/03/12 08:49:45;;;;;;;9.95;5.30;;;10.80;84.20;;;;;;6264984;22;20391;-56
2022/03/12 08:52:11;;;;;;;8.95;5.03;;;10.90;83.90;;;;;;6265835;22;20077;-56
2022/03/12 08:54:37;;;;;;;8.63;4.97;;;11.10;83.70;;;;;;6267167;22;20054;-57
2022/03/12 08:57:05;;;;;;;8.98;5.20;;;11.40;83.50;;;;;;6267200;22;20066;-56
2022/03/12 08:59:30;;;;;;;7.70;5.63;;;11.70;82.90;;;;;;6267350;22;20392;-58
2022/03/12 09:01:57;;;;;;;8.02;5.80;;;12.00;82.50;;;;;;6267063;22;20016;-57
2022/03/12 09:04:22;;;;;;;10.30;5.75;;;12.40;81.90;;;;;;6267365;22;20107;-56
2022/03/12 09:06:48;;;;;;;9.27;5.72;;;12.60;81.20;;;;;;6265541;22;20548;-56
2022/03/12 09:09:15;;;;;;;7.43;5.00;;;12.90;80.70;;;;;;6238322;22;20019;-59
2022/03/12 09:11:41;;;;;;;7.30;5.50;;;13.20;80.70;;;;;;6265677;22;20023;-56
2022/03/12 09:14:07;;;;;;;8.88;5.50;;;13.50;80.20;;;;;;6265390;22;20758;-56
2022/03/12 09:16:36;;;;;;;9.02;5.65;;;13.90;80.00;;;;;;6264617;22;20024;-58
2022/03/12 09:19:02;;;;;;;7.70;4.88;;;13.90;80.00;;;;;;6265417;22;20480;-58
2022/03/12 09:21:28;;;;;;;9.15;5.50;;;14.00;79.70;;;;;;6262929;22;20019;-56
2022/03/12 09:23:54;;;;;;;11.25;5.53;;;14.20;79.40;;;;;;6265326;22;20082;-62
2022/03/12 09:26:21;;;;;;;8.63;6.60;;;14.50;79.00;;;;;;6266329;22;20015;-57
2022/03/12 09:28:48;;;;;;;8.85;5.28;;;14.70;78.90;;;;;;6266846;22;20016;-58
2022/03/12 09:31:15;;;;;;;10.48;6.03;;;14.90;78.60;;;;;;6265474;22;20089;-58
2022/03/12 09:33:41;;;;;;;8.50;6.35;;;15.00;78.10;;;;;;6238728;22;20034;-58
2022/03/12 09:36:09;;;;;;;8.48;5.82;;;15.20;78.00;;;;;;6265884;22;20024;-57
2022/03/12 09:38:38;;;;;;;9.75;6.30;;;15.30;77.40;;;;;;6235224;22;20024;-56
2022/03/12 09:41:04;;;;;;;8.07;6.07;;;15.50;77.60;;;;;;6238993;22;20023;-56
2022/03/12 09:43:30;;;;;;;8.55;5.30;;;15.60;78.00;;;;;;6238459;22;20026;-56
2022/03/12 09:45:57;;;;;;;12.13;5.35;;;15.70;77.90;;;;;;6265626;22;20024;-56
2022/03/12 09:48:22;;;;;;;6.80;5.53;;;16.10;77.70;;;;;;6264524;22;20461;-56
2022/03/12 09:50:48;;;;;;;7.43;5.90;;;16.40;77.40;;;;;;6266629;22;20020;-56
2022/03/12 09:53:14;;;;;;;7.30;5.38;;;16.60;76.80;;;;;;6266532;22;20024;-56
2022/03/12 09:55:40;;;;;;;6.90;5.47;;;16.80;76.40;;;;;;6239368;22;20358;-57
2022/03/12 09:58:06;;;;;;;7.20;5.65;;;17.10;76.30;;;;;;6266250;22;20460;-57
2022/03/12 10:00:32;;;;;;;7.60;5.60;;;17.30;76.50;;;;;;6266171;22;20517;-56
2022/03/12 10:02:58;;;;;;;7.00;5.22;;;17.60;76.10;;;;;;6267068;22;20372;-56
2022/03/12 10:05:24;;;;;;;6.85;5.07;;;17.60;76.00;;;;;;6266679;22;20019;-57
2022/03/12 10:07:50;;;;;;;7.65;5.00;;;17.60;75.80;;;;;;6266996;22;20015;-56
2022/03/12 10:10:19;;;;;;;8.95;6.13;;;17.90;75.40;;;;;;6238897;22;20111;-56
2022/03/12 10:12:47;;;;;;;9.27;6.07;;;18.20;75.80;;;;;;6264791;22;20090;-56
2022/03/12 10:15:14;;;;;;;10.18;6.13;;;18.50;75.80;;;;;;6266426;22;20482;-56
2022/03/12 10:17:41;;;;;;;8.63;5.78;;;18.60;75.80;;;;;;6266435;22;20020;-57
2022/03/12 10:20:09;;;;;;;7.63;5.70;;;18.70;75.80;;;;;;6265411;22;20015;-56
2022/03/12 10:22:35;;;;;;;7.97;5.93;;;18.60;76.60;;;;;;6263454;22;20061;-57
2022/03/12 10:25:01;;;;;;;7.47;5.13;;;18.70;76.60;;;;;;6261832;22;20015;-56
2022/03/12 10:27:26;;;;;;;8.95;5.75;;;18.70;76.90;;;;;;6262959;22;20019;-57
2022/03/12 10:29:52;;;;;;;9.10;5.28;;;18.60;77.60;;;;;;6262497;22;20019;-57
2022/03/12 10:32:25;;;;;;;7.20;4.90;;;18.60;77.90;;;;;;6261286;22;20034;-57
2022/03/12 10:34:53;;;;;;;7.10;5.93;;;18.20;78.00;;;;;;6262348;22;20032;-57
2022/03/12 10:37:23;;;;;;;8.52;6.35;;;18.40;78.60;;;;;;6262448;22;20078;-57
2022/03/12 10:40:03;;;;;;;6.10;4.93;;;18.40;79.00;;;;;;6234915;22;20043;-56
2022/03/12 10:42:31;;;;;;;7.88;5.88;;;18.60;79.60;;;;;;6263073;22;20019;-56
2022/03/12 10:45:09;;;;;;;10.98;6.30;;;18.30;79.40;;;;;;6263447;22;20019;-57
2022/03/12 10:48:09;;;;;;;7.90;5.75;;;18.40;79.40;;;;;;6262636;22;20397;-57
2022/03/12 10:50:43;;;;;;;7.18;5.85;;;18.30;79.20;;;;;;6254867;22;20024;-57
2022/03/12 10:53:10;;;;;;;7.93;5.80;;;18.80;79.70;;;;;;6235264;22;20030;-56
2022/03/12 10:55:40;;;;;;;12.00;5.40;;;18.80;79.80;;;;;;6262889;22;20020;-56
2022/03/12 10:58:19;;;;;;;8.23;5.20;;;19.00;80.00;;;;;;6235197;22;20458;-57
2022/03/12 11:00:48;;;;;;;8.13;5.88;;;18.70;80.20;;;;;;6260487;22;20020;-57
2022/03/12 11:03:18;;;;;;;8.38;4.85;;;19.00;80.40;;;;;;6262170;22;20062;-57
2022/03/12 11:05:44;;;;;;;7.70;5.72;;;18.80;80.90;;;;;;6262900;22;20054;-59
2022/03/12 11:08:20;;;;;;;10.75;6.15;;;18.90;80.80;;;;;;6235128;22;20081;-56
2022/03/12 11:10:52;;;;;;;7.75;5.43;;;19.00;80.90;;;;;;6262097;22;20468;-58
2022/03/12 11:13:34;;;;;;;8.68;5.90;;;18.90;81.10;;;;;;6261271;22;20453;-56
2022/03/12 11:16:23;;;;;;;6.07;5.45;;;19.00;81.40;;;;;;6234281;22;20093;-58
2022/03/12 11:18:51;;;;;;;7.13;5.10;;;19.00;81.80;;;;;;6261628;22;20011;-57
2022/03/12 11:21:37;;;;;;;8.80;5.15;;;19.10;81.90;;;;;;6260891;22;20030;-56
2022/03/12 11:24:26;;;;;;;6.80;5.30;;;19.30;82.10;;;;;;6232853;22;20027;-57
2022/03/12 11:26:54;;;;;;;9.15;5.72;;;19.40;82.50;;;;;;6261248;22;20027;-57
2022/03/12 11:29:22;;;;;;;8.20;4.95;;;19.40;81.60;;;;;;6260608;22;20019;-56
2022/03/12 11:31:49;;;;;;;6.25;5.35;;;19.60;82.00;;;;;;6261292;22;20026;-57
2022/03/12 11:34:40;;;;;;;8.63;5.55;;;19.60;81.40;;;;;;6259486;22;20378;-56
2022/03/12 11:37:25;;;;;;;6.53;5.07;;;19.40;81.80;;;;;;6242840;22;20019;-57
2022/03/12 11:39:58;;;;;;;6.60;5.43;;;19.30;82.00;;;;;;6208704;22;20362;-57
2022/03/12 11:43:04;;;;;;;7.57;5.68;;;19.50;82.10;;;;;;6205460;22;20051;-57
2022/03/12 11:45:40;;;;;;;6.05;5.38;;;20.00;81.70;;;;;;6232534;22;20458;-56
2022/03/12 11:48:17;;;;;;;8.27;6.22;;;20.00;81.80;;;;;;6206650;22;20062;-56
2022/03/12 11:50:46;;;;;;;6.38;5.15;;;19.80;81.70;;;;;;6209524;22;20015;-56
2022/03/12 11:53:18;;;;;;;8.50;5.18;;;20.20;81.80;;;;;;6262003;22;20119;-57
2022/03/12 11:55:51;;;;;;;8.02;5.85;;;20.90;81.00;;;;;;6228535;22;20459;-57
2022/03/12 11:58:19;;;;;;;6.55;5.25;;;21.10;80.20;;;;;;6207855;22;20019;-57
2022/03/12 12:00:52;;;;;;;8.93;6.10;;;21.90;80.00;;;;;;6233169;22;20024;-57
2022/03/12 12:03:21;;;;;;;8.93;6.28;;;23.20;78.50;;;;;;6209271;22;20026;-56
2022/03/12 12:05:52;;;;;;;6.25;4.55;;;24.30;77.10;;;;;;6210130;22;20028;-56
2022/03/12 12:08:22;;;;;;;5.97;5.30;;;23.60;76.60;;;;;;6209726;22;20382;-58
2022/03/12 12:10:58;;;;;;;6.78;5.68;;;24.00;76.00;;;;;;6210793;22;20442;-56
2022/03/12 12:13:33;;;;;;;6.47;5.38;;;24.10;75.40;;;;;;6234812;22;20015;-57
2022/03/12 12:16:04;;;;;;;7.20;5.15;;;24.00;75.00;;;;;;6209335;22;20085;-56
2022/03/12 12:18:30;;;;;;;9.60;5.22;;;23.00;75.70;;;;;;6262784;22;20103;-57
2022/03/12 12:20:55;;;;;;;5.65;4.75;;;22.20;76.40;;;;;;6262329;22;20087;-56
2022/03/12 12:23:21;;;;;;;6.07;4.80;;;21.60;77.00;;;;;;6262733;22;20525;-57
2022/03/12 12:25:48;;;;;;;9.38;5.75;;;21.30;77.60;;;;;;6264631;22;20088;-56
2022/03/12 12:28:15;;;;;;;9.20;5.35;;;21.10;78.30;;;;;;6264163;22;20028;-57
2022/03/12 12:30:44;;;;;;;11.63;5.82;;;22.30;78.00;;;;;;6235165;22;20027;-55
2022/03/12 12:33:36;;;;;;;8.27;5.05;;;24.00;77.10;;;;;;6263101;22;20022;-56
2022/03/12 12:36:08;;;;;;;5.93;5.35;;;25.80;75.40;;;;;;6230390;22;20023;-56
2022/03/12 12:38:33;;;;;;;9.57;4.72;;;25.00;74.10;;;;;;6261820;22;20136;-56
2022/03/12 12:41:03;;;;;;;5.82;4.65;;;25.30;74.30;;;;;;6264188;22;20466;-56
2022/03/12 12:43:45;;;;;;;7.20;4.60;;;25.40;73.70;;;;;;6263482;22;20015;-56
2022/03/12 12:46:13;;;;;;;7.03;4.75;;;26.40;73.20;;;;;;6263792;22;20059;-56
2022/03/12 12:48:43;;;;;;;8.35;5.05;;;25.20;72.70;;;;;;6264397;22;20262;-56
2022/03/12 12:51:20;;;;;;;5.68;4.50;;;24.70;73.00;;;;;;6263477;22;20121;-56
2022/03/12 12:53:57;;;;;;;6.80;4.70;;;24.30;73.80;;;;;;6264438;22;20019;-57
2022/03/12 12:56:30;;;;;;;8.68;5.13;;;23.60;74.40;;;;;;6264013;22;20066;-56
2022/03/12 12:58:58;;;;;;;5.07;4.30;;;23.30;74.90;;;;;;6263848;22;20016;-57